createdAt,value
2023-04-15T00:00:46.276Z,50.834774
2023-04-15T00:01:46.309Z,50.834782
2023-04-15T00:02:46.368Z,50.834782
2023-04-15T00:03:46.340Z,50.834774
2023-04-15T00:04:46.281Z,50.834770
2023-04-15T00:05:46.237Z,50.834763
2023-04-15T00:06:46.221Z,50.834770
2023-04-15T00:07:46.226Z,50.834785
2023-04-15T00:08:46.228Z,50.834785
2023-04-15T00:09:46.215Z,50.834793
2023-04-15T00:10:46.231Z,50.834808
2023-04-15T00:11:46.182Z,50.834789
2023-04-15T00:12:46.181Z,50.834793
2023-04-15T00:13:46.196Z,50.834797
2023-04-15T00:14:46.190Z,50.834797
2023-04-15T00:15:46.206Z,50.834774
2023-04-15T00:16:46.207Z,50.834782
2023-04-15T00:17:46.181Z,50.834774
2023-04-15T00:18:46.158Z,50.834778
2023-04-15T00:19:46.181Z,50.834774
2023-04-15T00:20:46.134Z,50.834797
2023-04-15T00:21:46.133Z,50.834816
2023-04-15T00:22:46.095Z,50.834816
2023-04-15T00:23:46.092Z,50.834801
2023-04-15T00:24:46.096Z,50.834808
2023-04-15T00:25:46.108Z,50.834812
2023-04-15T00:26:46.110Z,50.834782
2023-04-15T00:27:46.067Z,50.834797
2023-04-15T00:28:46.045Z,50.834782
2023-04-15T00:29:46.125Z,50.834805
2023-04-15T00:30:46.135Z,50.834778
2023-04-15T00:31:46.022Z,50.834778
2023-04-15T00:32:46.093Z,50.834789
2023-04-15T00:33:46.012Z,50.834785
2023-04-15T00:34:46.032Z,50.834805
2023-04-15T00:35:46.023Z,50.834801
2023-04-15T00:36:46.014Z,50.834808
2023-04-15T00:37:46.499Z,50.834831
2023-04-15T00:38:46.979Z,50.834827
2023-04-15T00:39:45.998Z,50.834805
2023-04-15T00:40:45.989Z,50.834774
2023-04-15T00:41:45.969Z,50.834751
2023-04-15T00:42:45.959Z,50.834759
2023-04-15T00:43:45.966Z,50.834774
2023-04-15T00:44:45.933Z,50.834785
2023-04-15T00:45:46.004Z,50.834793
2023-04-15T00:46:45.937Z,50.834774
2023-04-15T00:47:45.951Z,50.834805
2023-04-15T00:48:45.916Z,50.834801
2023-04-15T00:49:45.912Z,50.834785
2023-04-15T00:50:45.942Z,50.834797
2023-04-15T00:51:45.893Z,50.834789
2023-04-15T00:52:45.907Z,50.834816
2023-04-15T00:53:45.863Z,50.834816
2023-04-15T00:54:45.883Z,50.834816
2023-04-15T00:55:45.845Z,50.834816
2023-04-15T00:56:45.853Z,50.834831
2023-04-15T00:57:45.852Z,50.834820
2023-04-15T00:58:46.854Z,50.834816
2023-04-15T00:59:45.835Z,50.834805
2023-04-15T01:00:45.838Z,50.834789
2023-04-15T01:01:45.961Z,50.834824
2023-04-15T01:02:45.931Z,50.834805
2023-04-15T01:03:45.929Z,50.834812
2023-04-15T01:04:45.810Z,50.834820
2023-04-15T01:05:45.769Z,50.834839
2023-04-15T01:06:45.764Z,50.834824
2023-04-15T01:07:45.774Z,50.834797
2023-04-15T01:08:45.754Z,50.834812
2023-04-15T01:09:45.762Z,50.834816
2023-04-15T01:10:45.762Z,50.834827
2023-04-15T01:11:45.796Z,50.834820
2023-04-15T01:12:45.759Z,50.834835
2023-04-15T01:13:45.749Z,50.834839
2023-04-15T01:14:45.729Z,50.834812
2023-04-15T01:15:45.730Z,50.834827
2023-04-15T01:16:45.696Z,50.834820
2023-04-15T01:17:45.698Z,50.834820
2023-04-15T01:18:45.700Z,50.834854
2023-04-15T01:19:45.699Z,50.834812
2023-04-15T01:20:45.665Z,50.834797
2023-04-15T01:21:45.703Z,50.834789
2023-04-15T01:22:45.648Z,50.834812
2023-04-15T01:23:45.650Z,50.834824
2023-04-15T01:24:45.656Z,50.834808
2023-04-15T01:25:45.644Z,50.834843
2023-04-15T01:26:45.619Z,50.834831
2023-04-15T01:27:45.641Z,50.834820
2023-04-15T01:28:45.620Z,50.834793
2023-04-15T01:29:45.616Z,50.834808
2023-04-15T01:30:45.610Z,50.834812
2023-04-15T01:31:45.650Z,50.834797
2023-04-15T01:32:45.620Z,50.834797
2023-04-15T01:33:45.591Z,50.834808
2023-04-15T01:34:45.582Z,50.834808
2023-04-15T01:35:45.559Z,50.834812
2023-04-15T01:36:45.580Z,50.834812
2023-04-15T01:37:45.559Z,50.834793
2023-04-15T01:38:45.566Z,50.834816
2023-04-15T01:39:45.574Z,50.834808
2023-04-15T01:40:45.514Z,50.834801
2023-04-15T01:41:45.519Z,50.834808
2023-04-15T01:42:45.494Z,50.834820
2023-04-15T01:43:45.486Z,50.834812
2023-04-15T01:44:45.533Z,50.834801
2023-04-15T01:45:45.500Z,50.834797
2023-04-15T01:46:45.517Z,50.834782
2023-04-15T01:47:45.514Z,50.834785
2023-04-15T01:48:45.460Z,50.834793
2023-04-15T01:49:45.462Z,50.834805
2023-04-15T01:50:45.460Z,50.834797
2023-04-15T01:51:45.437Z,50.834797
2023-04-15T01:52:45.426Z,50.834805
2023-04-15T01:53:45.405Z,50.834820
2023-04-15T01:54:45.421Z,50.834816
2023-04-15T01:55:45.439Z,50.834827
2023-04-15T01:56:45.396Z,50.834835
2023-04-15T01:57:45.426Z,50.834843
2023-04-15T01:58:45.371Z,50.834824
2023-04-15T01:59:45.357Z,50.834808
2023-04-15T02:00:46.385Z,50.834827
2023-04-15T02:01:45.474Z,50.834827
2023-04-15T02:02:45.514Z,50.834812
2023-04-15T02:03:45.449Z,50.834812
2023-04-15T02:04:45.337Z,50.834820
2023-04-15T02:05:45.312Z,50.834831
2023-04-15T02:06:45.536Z,50.834785
2023-04-15T02:07:45.325Z,50.834774
2023-04-15T02:08:45.323Z,50.834743
2023-04-15T02:09:45.946Z,50.834724
2023-04-15T02:10:45.290Z,50.834759
2023-04-15T02:11:45.259Z,50.834728
2023-04-15T02:12:45.291Z,50.834785
2023-04-15T02:13:45.288Z,50.834801
2023-04-15T02:14:45.251Z,50.834793
2023-04-15T02:15:45.243Z,50.834797
2023-04-15T02:16:45.383Z,50.834812
2023-04-15T02:17:45.242Z,50.834835
2023-04-15T02:18:45.286Z,50.834820
2023-04-15T02:19:45.241Z,50.834881
2023-04-15T02:20:45.195Z,50.834816
2023-04-15T02:21:45.186Z,50.834854
2023-04-15T02:22:45.186Z,50.834846
2023-04-15T02:23:45.197Z,50.834820
2023-04-15T02:24:45.203Z,50.834850
2023-04-15T02:25:53.537Z,50.834824
2023-04-15T02:26:46.153Z,50.834866
2023-04-15T02:27:45.160Z,50.834862
2023-04-15T02:28:45.141Z,50.834869
2023-04-15T02:29:45.141Z,50.834862
2023-04-15T02:30:45.132Z,50.834850
2023-04-15T02:31:45.205Z,50.834835
2023-04-15T02:32:45.339Z,50.834839
2023-04-15T02:33:45.112Z,50.834846
2023-04-15T02:34:45.123Z,50.834843
2023-04-15T02:35:45.108Z,50.834862
2023-04-15T02:36:45.100Z,50.834858
2023-04-15T02:37:45.915Z,50.834827
2023-04-15T02:38:45.056Z,50.834858
2023-04-15T02:39:45.116Z,50.834820
2023-04-15T02:40:45.065Z,50.834846
2023-04-15T02:41:45.042Z,50.834854
2023-04-15T02:42:45.249Z,50.834846
2023-04-15T02:43:45.050Z,50.834846
2023-04-15T02:44:45.031Z,50.834850
2023-04-15T02:45:45.080Z,50.834827
2023-04-15T02:46:44.993Z,50.834850
2023-04-15T02:47:45.011Z,50.834839
2023-04-15T02:48:44.990Z,50.834839
2023-04-15T02:49:45.001Z,50.834835
2023-04-15T02:50:44.965Z,50.834843
2023-04-15T02:51:44.973Z,50.834816
2023-04-15T02:52:44.951Z,50.834850
2023-04-15T02:53:44.937Z,50.834850
2023-04-15T02:54:44.940Z,50.834850
2023-04-15T02:55:44.926Z,50.834900
2023-04-15T02:56:44.942Z,50.834873
2023-04-15T02:57:44.920Z,50.834862
2023-04-15T02:58:44.915Z,50.834835
2023-04-15T02:59:44.891Z,50.834858
2023-04-15T03:00:44.906Z,50.834846
2023-04-15T03:01:45.032Z,50.834824
2023-04-15T03:02:45.011Z,50.834839
2023-04-15T03:03:45.025Z,50.834843
2023-04-15T03:04:44.893Z,50.834862
2023-04-15T03:05:44.858Z,50.834888
2023-04-15T03:06:44.879Z,50.834888
2023-04-15T03:07:44.838Z,50.834854
2023-04-15T03:08:44.845Z,50.834850
2023-04-15T03:09:44.830Z,50.834839
2023-04-15T03:10:44.815Z,50.834831
2023-04-15T03:11:44.846Z,50.834869
2023-04-15T03:12:44.826Z,50.834850
2023-04-15T03:13:44.796Z,50.834839
2023-04-15T03:14:44.806Z,50.834850
2023-04-15T03:15:44.790Z,50.834858
2023-04-15T03:16:44.798Z,50.834869
2023-04-15T03:17:44.786Z,50.834888
2023-04-15T03:18:44.771Z,50.834873
2023-04-15T03:19:44.732Z,50.834850
2023-04-15T03:20:44.772Z,50.834873
2023-04-15T03:21:44.739Z,50.834854
2023-04-15T03:22:44.747Z,50.834846
2023-04-15T03:23:44.730Z,50.834854
2023-04-15T03:24:44.705Z,50.834862
2023-04-15T03:25:44.721Z,50.834854
2023-04-15T03:26:44.712Z,50.834869
2023-04-15T03:27:44.716Z,50.834881
2023-04-15T03:28:44.723Z,50.834869
2023-04-15T03:29:44.714Z,50.834831
2023-04-15T03:30:44.693Z,50.834858
2023-04-15T03:31:44.718Z,50.834873
2023-04-15T03:32:44.660Z,50.834854
2023-04-15T03:33:44.652Z,50.834846
2023-04-15T03:34:44.663Z,50.834820
2023-04-15T03:35:44.677Z,50.834850
2023-04-15T03:36:44.631Z,50.834831
2023-04-15T03:37:44.653Z,50.834839
2023-04-15T03:38:44.601Z,50.834843
2023-04-15T03:39:44.666Z,50.834881
2023-04-15T03:40:44.633Z,50.834862
2023-04-15T03:41:44.633Z,50.834877
2023-04-15T03:42:44.604Z,50.834888
2023-04-15T03:43:44.580Z,50.834843
2023-04-15T03:44:44.586Z,50.834820
2023-04-15T03:45:44.572Z,50.834843
2023-04-15T03:46:44.609Z,50.834862
2023-04-15T04:09:57.243Z,50.834965
2023-04-15T04:10:57.221Z,50.834984
2023-04-15T04:11:57.222Z,50.834949
2023-04-15T04:12:57.206Z,50.834927
2023-04-15T04:13:57.219Z,50.834866
2023-04-15T04:14:57.186Z,50.834862
2023-04-15T04:15:57.226Z,50.834843
2023-04-15T04:16:57.222Z,50.834873
2023-04-15T04:17:57.238Z,50.834892
2023-04-15T04:18:57.172Z,50.834858
2023-04-15T04:19:57.133Z,50.834888
2023-04-15T04:20:57.126Z,50.834892
2023-04-15T04:21:57.149Z,50.834888
2023-04-15T04:22:57.156Z,50.834892
2023-04-15T04:23:57.125Z,50.834881
2023-04-15T04:24:57.100Z,50.834854
2023-04-15T04:25:57.100Z,50.834869
2023-04-15T04:26:57.176Z,50.834850
2023-04-15T04:27:57.092Z,50.834858
2023-04-15T04:28:57.086Z,50.834858
2023-04-15T04:29:57.101Z,50.834873
2023-04-15T04:30:57.054Z,50.834839
2023-04-15T04:31:58.073Z,50.834843
2023-04-15T04:32:57.040Z,50.834843
2023-04-15T04:33:57.030Z,50.834858
2023-04-15T04:34:57.047Z,50.834854
2023-04-15T04:35:57.039Z,50.834850
2023-04-15T04:36:57.048Z,50.834843
2023-04-15T04:37:57.003Z,50.834854
2023-04-15T04:38:57.899Z,50.834854
2023-04-15T04:39:56.991Z,50.834850
2023-04-15T04:40:56.988Z,50.834866
2023-04-15T04:41:56.966Z,50.834869
2023-04-15T04:42:56.973Z,50.834850
2023-04-15T04:43:57.001Z,50.834858
2023-04-15T04:44:56.948Z,50.834850
2023-04-15T04:45:56.993Z,50.834831
2023-04-15T04:46:56.947Z,50.834858
2023-04-15T04:47:56.982Z,50.834862
2023-04-15T04:48:56.928Z,50.834846
2023-04-15T04:49:56.922Z,50.834854
2023-04-15T04:50:56.892Z,50.834846
2023-04-15T04:51:56.897Z,50.834854
2023-04-15T04:52:56.893Z,50.834843
2023-04-15T04:53:56.895Z,50.834839
2023-04-15T04:54:56.896Z,50.834820
2023-04-15T04:55:56.864Z,50.834843
2023-04-15T04:56:56.875Z,50.834850
2023-04-15T04:57:56.875Z,50.834827
2023-04-15T04:58:56.845Z,50.834827
2023-04-15T04:59:56.860Z,50.834827
2023-04-15T05:00:57.561Z,50.834843
2023-04-15T05:01:57.075Z,50.834843
2023-04-15T05:02:57.014Z,50.834850
2023-04-15T05:03:56.915Z,50.834858
2023-04-15T05:04:57.291Z,50.834846
2023-04-15T05:05:56.778Z,50.834843
2023-04-15T05:06:56.785Z,50.834846
2023-04-15T05:07:56.808Z,50.834854
2023-04-15T05:08:56.783Z,50.834854
2023-04-15T05:09:56.755Z,50.834850
2023-04-15T05:10:56.858Z,50.834843
2023-04-15T05:11:56.757Z,50.834839
2023-04-15T05:12:56.730Z,50.834843
2023-04-15T05:13:56.756Z,50.834835
2023-04-15T05:14:56.714Z,50.834858
2023-04-15T05:15:56.739Z,50.834850
2023-04-15T05:16:56.711Z,50.834843
2023-04-15T05:17:56.760Z,50.834843
2023-04-15T05:18:56.724Z,50.834808
2023-04-15T05:19:56.824Z,50.834816
2023-04-15T05:20:56.691Z,50.834808
2023-04-15T05:21:56.672Z,50.834816
2023-04-15T05:22:56.725Z,50.834816
2023-04-15T05:23:56.672Z,50.834850
2023-04-15T05:24:56.668Z,50.834824
2023-04-15T05:25:56.658Z,50.834831
2023-04-15T05:26:56.677Z,50.834831
2023-04-15T05:27:56.615Z,50.834824
2023-04-15T05:28:56.620Z,50.834827
2023-04-15T05:29:56.618Z,50.834835
2023-04-15T05:30:56.615Z,50.834824
2023-04-15T05:31:56.606Z,50.834824
2023-04-15T05:32:56.626Z,50.834827
2023-04-15T05:33:56.605Z,50.834789
2023-04-15T05:34:56.590Z,50.834801
2023-04-15T05:35:56.552Z,50.834812
2023-04-15T05:36:56.578Z,50.834801
2023-04-15T05:37:56.568Z,50.834805
2023-04-15T05:38:56.585Z,50.834805
2023-04-15T05:39:56.539Z,50.834812
2023-04-15T05:40:56.564Z,50.834801
2023-04-15T05:41:56.521Z,50.834812
2023-04-15T05:42:56.529Z,50.834808
2023-04-15T05:43:56.516Z,50.834824
2023-04-15T05:44:56.513Z,50.834831
2023-04-15T05:45:56.549Z,50.834831
2023-04-15T05:46:56.479Z,50.834831
2023-04-15T05:47:56.598Z,50.834827
2023-04-15T05:48:56.837Z,50.834827
2023-04-15T05:49:56.459Z,50.834835
2023-04-15T05:50:56.444Z,50.834824
2023-04-15T05:51:56.456Z,50.834839
2023-04-15T05:52:56.432Z,50.834824
2023-04-15T05:53:56.452Z,50.834812
2023-04-15T05:54:56.424Z,50.834801
2023-04-15T05:55:56.444Z,50.834816
2023-04-15T05:56:56.415Z,50.834812
2023-04-15T05:57:56.389Z,50.834805
2023-04-15T05:58:56.378Z,50.834808
2023-04-15T05:59:56.376Z,50.834808
2023-04-15T06:00:56.377Z,50.834827
2023-04-15T06:01:56.415Z,50.834805
2023-04-15T06:02:56.407Z,50.834812
2023-04-15T06:03:56.508Z,50.834824
2023-04-15T06:04:56.408Z,50.834812
2023-04-15T06:05:56.322Z,50.834816
2023-04-15T06:06:56.329Z,50.834801
2023-04-15T06:07:56.353Z,50.834797
2023-04-15T06:08:56.336Z,50.834824
2023-04-15T06:09:56.313Z,50.834827
2023-04-15T06:10:56.333Z,50.834827
2023-04-15T06:11:56.303Z,50.834831
2023-04-15T06:12:56.277Z,50.834812
2023-04-15T06:13:56.265Z,50.834812
2023-04-15T06:14:56.866Z,50.834808
2023-04-15T06:15:56.274Z,50.834805
2023-04-15T06:16:56.251Z,50.834808
2023-04-15T06:17:56.302Z,50.834812
2023-04-15T06:18:56.252Z,50.834831
2023-04-15T06:19:56.256Z,50.834820
2023-04-15T06:20:56.224Z,50.834805
2023-04-15T06:21:56.204Z,50.834805
2023-04-15T06:22:56.284Z,50.834797
2023-04-15T06:23:56.203Z,50.834782
2023-04-15T06:24:56.193Z,50.834785
2023-04-15T06:25:56.169Z,50.834774
2023-04-15T06:26:56.264Z,50.834778
2023-04-15T06:27:56.190Z,50.834770
2023-04-15T06:28:56.148Z,50.834774
2023-04-15T06:29:57.150Z,50.834770
2023-04-15T06:30:56.147Z,50.834766
2023-04-15T06:31:56.203Z,50.834778
2023-04-15T06:32:56.204Z,50.834793
2023-04-15T06:33:56.143Z,50.834797
2023-04-15T06:34:56.128Z,50.834797
2023-04-15T06:35:56.116Z,50.834789
2023-04-15T06:36:56.082Z,50.834797
2023-04-15T06:37:56.092Z,50.834782
2023-04-15T06:38:56.100Z,50.834816
2023-04-15T06:39:56.083Z,50.834820
2023-04-15T06:40:56.073Z,50.834797
2023-04-15T06:41:56.079Z,50.834793
2023-04-15T06:42:56.037Z,50.834816
2023-04-15T06:43:56.054Z,50.834789
2023-04-15T06:44:56.058Z,50.834763
2023-04-15T06:45:56.087Z,50.834793
2023-04-15T06:46:56.010Z,50.834801
2023-04-15T06:47:56.076Z,50.834793
2023-04-15T06:48:56.011Z,50.834827
2023-04-15T06:49:56.007Z,50.834801
2023-04-15T06:50:56.110Z,50.834766
2023-04-15T06:51:55.971Z,50.834797
2023-04-15T06:52:56.047Z,50.834782
2023-04-15T06:53:55.961Z,50.834801
2023-04-15T06:54:55.959Z,50.834785
2023-04-15T06:55:55.968Z,50.834770
2023-04-15T06:56:55.963Z,50.834801
2023-04-15T06:57:55.948Z,50.834801
2023-04-15T06:58:55.916Z,50.834778
2023-04-15T06:59:55.923Z,50.834785
2023-04-15T07:00:55.936Z,50.834778
2023-04-15T07:01:55.939Z,50.834766
2023-04-15T07:02:55.970Z,50.834778
2023-04-15T07:03:55.903Z,50.834782
2023-04-15T07:04:55.865Z,50.834740
2023-04-15T07:05:56.918Z,50.834759
2023-04-15T07:06:55.891Z,50.834743
2023-04-15T07:07:55.877Z,50.834789
2023-04-15T07:08:56.853Z,50.834774
2023-04-15T07:09:55.841Z,50.834782
2023-04-15T07:10:55.819Z,50.834778
2023-04-15T07:11:55.830Z,50.834747
2023-04-15T07:12:55.854Z,50.834755
2023-04-15T07:13:55.825Z,50.834778
2023-04-15T07:14:55.822Z,50.834797
2023-04-15T07:15:55.803Z,50.834785
2023-04-15T07:16:55.850Z,50.834774
2023-04-15T07:17:55.790Z,50.834763
2023-04-15T07:18:55.766Z,50.834774
2023-04-15T07:19:55.769Z,50.834759
2023-04-15T07:20:55.749Z,50.834785
2023-04-15T07:21:55.746Z,50.834774
2023-04-15T07:22:55.763Z,50.834778
2023-04-15T07:23:55.744Z,50.834774
2023-04-15T07:24:55.751Z,50.834747
2023-04-15T07:25:55.750Z,50.834763
2023-04-15T07:26:55.734Z,50.834766
2023-04-15T07:27:55.707Z,50.834778
2023-04-15T07:28:55.697Z,50.834774
2023-04-15T07:29:55.677Z,50.834782
2023-04-15T07:30:55.705Z,50.834797
2023-04-15T07:31:55.694Z,50.834782
2023-04-15T07:32:55.720Z,50.834774
2023-04-15T07:33:55.667Z,50.834805
2023-04-15T07:34:55.650Z,50.834789
2023-04-15T07:35:55.652Z,50.834808
2023-04-15T07:36:55.654Z,50.834808
2023-04-15T07:37:55.747Z,50.834770
2023-04-15T07:38:55.640Z,50.834831
2023-04-15T07:39:56.285Z,50.834846
2023-04-15T07:40:55.602Z,50.834782
2023-04-15T07:41:55.602Z,50.834816
2023-04-15T07:42:55.623Z,50.834824
2023-04-15T07:43:55.596Z,50.834801
2023-04-15T07:44:55.585Z,50.834793
2023-04-15T07:45:55.624Z,50.834763
2023-04-15T07:46:55.605Z,50.834770
2023-04-15T07:47:55.586Z,50.834793
2023-04-15T07:48:55.574Z,50.834774
2023-04-15T07:49:55.568Z,50.834774
2023-04-15T07:50:55.553Z,50.834763
2023-04-15T07:51:55.530Z,50.834778
2023-04-15T07:52:55.535Z,50.834782
2023-04-15T07:53:55.544Z,50.834789
2023-04-15T07:54:55.504Z,50.834785
2023-04-15T07:55:55.515Z,50.834801
2023-04-15T07:56:55.499Z,50.834797
2023-04-15T07:57:55.492Z,50.834793
2023-04-15T07:58:55.724Z,50.834766
2023-04-15T07:59:55.490Z,50.834805
2023-04-15T08:00:55.486Z,50.834801
2023-04-15T08:01:55.451Z,50.834812
2023-04-15T08:02:55.518Z,50.834797
2023-04-15T08:03:55.612Z,50.834824
2023-04-15T08:04:55.480Z,50.834816
2023-04-15T08:05:55.421Z,50.834805
2023-04-15T08:06:55.444Z,50.834801
2023-04-15T08:07:55.409Z,50.834816
2023-04-15T08:08:55.414Z,50.834774
2023-04-15T08:09:55.438Z,50.834801
2023-04-15T08:10:55.416Z,50.834782
2023-04-15T08:11:55.380Z,50.834797
2023-04-15T08:12:55.367Z,50.834801
2023-04-15T08:13:56.394Z,50.834770
2023-04-15T08:14:55.355Z,50.834785
2023-04-15T08:15:55.372Z,50.834785
2023-04-15T08:16:55.335Z,50.834801
2023-04-15T08:17:55.377Z,50.834812
2023-04-15T08:18:55.349Z,50.834808
2023-04-15T08:19:55.305Z,50.834797
2023-04-15T08:20:55.328Z,50.834797
2023-04-15T08:21:55.340Z,50.834797
2023-04-15T08:22:55.315Z,50.834805
2023-04-15T08:23:55.303Z,50.834812
2023-04-15T08:24:55.296Z,50.834797
2023-04-15T08:25:55.287Z,50.834789
2023-04-15T08:26:55.296Z,50.834789
2023-04-15T08:27:55.269Z,50.834808
2023-04-15T08:28:55.262Z,50.834827
2023-04-15T08:29:55.288Z,50.834808
2023-04-15T08:30:55.233Z,50.834820
2023-04-15T08:31:55.340Z,50.834797
2023-04-15T08:32:55.321Z,50.834793
2023-04-15T08:33:55.867Z,50.834801
2023-04-15T08:34:55.222Z,50.834824
2023-04-15T08:35:56.756Z,50.834805
2023-04-15T08:36:55.189Z,50.834789
2023-04-15T08:37:55.234Z,50.834797
2023-04-15T08:38:55.201Z,50.834805
2023-04-15T08:39:55.196Z,50.834816
2023-04-15T08:40:55.175Z,50.834816
2023-04-15T08:41:55.153Z,50.834831
2023-04-15T08:42:55.206Z,50.834835
2023-04-15T08:43:55.153Z,50.834808
2023-04-15T08:44:55.172Z,50.834835
2023-04-15T08:45:55.136Z,50.834812
2023-04-15T08:46:55.161Z,50.834827
2023-04-15T08:47:55.206Z,50.834843
2023-04-15T08:48:55.214Z,50.834858
2023-04-15T08:49:55.100Z,50.834846
2023-04-15T08:50:55.109Z,50.834843
2023-04-15T08:51:56.089Z,50.834824
2023-04-15T08:52:55.111Z,50.834812
2023-04-15T08:53:55.087Z,50.834820
2023-04-15T08:54:55.100Z,50.834805
2023-04-15T08:55:55.105Z,50.834808
2023-04-15T08:56:55.165Z,50.834816
2023-04-15T08:57:55.046Z,50.834824
2023-04-15T08:58:55.142Z,50.834812
2023-04-15T08:59:55.116Z,50.834805
2023-04-15T09:00:55.099Z,50.834812
2023-04-15T09:01:55.887Z,50.834820
2023-04-15T09:02:55.110Z,50.834824
2023-04-15T09:03:55.143Z,50.834808
2023-04-15T09:04:55.046Z,50.834816
2023-04-15T09:05:54.973Z,50.834805
2023-04-15T09:06:54.998Z,50.834805
2023-04-15T09:07:55.036Z,50.834843
2023-04-15T09:08:55.071Z,50.834805
2023-04-15T09:09:54.930Z,50.834801
2023-04-15T09:10:54.959Z,50.834805
2023-04-15T09:11:54.939Z,50.834797
2023-04-15T09:12:54.902Z,50.834782
2023-04-15T09:13:54.926Z,50.834801
2023-04-15T09:14:54.885Z,50.834827
2023-04-15T09:15:54.917Z,50.834820
2023-04-15T09:16:54.903Z,50.834805
2023-04-15T09:18:27.481Z,50.834801
2023-04-15T09:18:54.945Z,50.834801
2023-04-15T09:19:54.917Z,50.834816
2023-04-15T09:20:55.869Z,50.834812
2023-04-15T09:21:57.313Z,50.834820
2023-04-15T09:22:54.858Z,50.834824
2023-04-15T09:23:54.877Z,50.834831
2023-04-15T09:24:54.853Z,50.834827
2023-04-15T09:25:54.844Z,50.834839
2023-04-15T09:26:54.814Z,50.834808
2023-04-15T09:27:54.805Z,50.834820
2023-04-15T09:28:54.798Z,50.834816
2023-04-15T09:29:54.800Z,50.834827
2023-04-15T09:30:54.864Z,50.834808
2023-04-15T09:31:54.836Z,50.834812
2023-04-15T09:32:54.829Z,50.834831
2023-04-15T09:33:54.744Z,50.834820
2023-04-15T09:34:54.783Z,50.834797
2023-04-15T09:35:54.752Z,50.834808
2023-04-15T09:36:54.790Z,50.834797
2023-04-15T09:37:54.744Z,50.834816
2023-04-15T09:38:54.722Z,50.834816
2023-04-15T09:39:54.723Z,50.834824
2023-04-15T09:40:54.694Z,50.834812
2023-04-15T09:41:54.694Z,50.834816
2023-04-15T09:42:54.688Z,50.834835
2023-04-15T09:43:55.420Z,50.834831
2023-04-15T09:44:54.673Z,50.834831
2023-04-15T09:45:54.666Z,50.834846
2023-04-15T09:46:54.670Z,50.834869
2023-04-15T09:47:55.736Z,50.834831
2023-04-15T09:48:54.662Z,50.834824
2023-04-15T09:49:54.719Z,50.834816
2023-04-15T09:50:54.660Z,50.834843
2023-04-15T09:52:04.409Z,50.834820
2023-04-15T09:52:56.691Z,50.834816
2023-04-15T09:53:54.639Z,50.834839
2023-04-15T09:54:54.636Z,50.834812
2023-04-15T09:55:54.750Z,50.834820
2023-04-15T09:56:54.586Z,50.834808
2023-04-15T09:57:55.389Z,50.834854
2023-04-15T09:58:54.968Z,50.834812
2023-04-15T09:59:54.578Z,50.834816
2023-04-15T10:00:54.580Z,50.834816
2023-04-15T10:01:54.592Z,50.834812
2023-04-15T10:02:54.647Z,50.834846
2023-04-15T10:03:54.648Z,50.834831
2023-04-15T10:04:55.428Z,50.834869
2023-04-15T10:05:54.532Z,50.834866
2023-04-15T10:06:54.524Z,50.834816
2023-04-15T10:07:54.505Z,50.834827
2023-04-15T10:08:54.498Z,50.834831
2023-04-15T10:09:54.528Z,50.834827
2023-04-15T10:10:54.543Z,50.834827
2023-04-15T10:11:54.472Z,50.834827
2023-04-15T10:12:54.463Z,50.834843
2023-04-15T10:13:54.463Z,50.834850
2023-04-15T10:14:54.470Z,50.834858
2023-04-15T10:15:54.574Z,50.834824
2023-04-15T10:16:54.448Z,50.834900
2023-04-15T10:17:54.523Z,50.834808
2023-04-15T10:18:55.410Z,50.834827
2023-04-15T10:19:54.450Z,50.834846
2023-04-15T10:20:54.471Z,50.834820
2023-04-15T10:21:54.415Z,50.834820
2023-04-15T10:22:54.373Z,50.834854
2023-04-15T10:23:54.377Z,50.834850
2023-04-15T10:24:54.383Z,50.834873
2023-04-15T10:25:54.907Z,50.834843
2023-04-15T10:26:54.348Z,50.834854
2023-04-15T10:27:55.386Z,50.834843
2023-04-15T10:28:54.345Z,50.834846
2023-04-15T10:29:54.351Z,50.834801
2023-04-15T10:30:54.370Z,50.834835
2023-04-15T10:31:54.342Z,50.834812
2023-04-15T10:32:54.414Z,50.834827
2023-04-15T10:33:54.295Z,50.834820
2023-04-15T10:34:54.738Z,50.834812
2023-04-15T10:35:55.316Z,50.834812
2023-04-15T10:36:54.336Z,50.834816
2023-04-15T10:37:54.267Z,50.834808
2023-04-15T10:38:54.270Z,50.834808
2023-04-15T10:39:54.257Z,50.834782
2023-04-15T10:40:54.286Z,50.834808
2023-04-15T10:41:54.249Z,50.834816
2023-04-15T10:42:54.252Z,50.834816
2023-04-15T10:43:54.249Z,50.834797
2023-04-15T10:44:54.246Z,50.834808
2023-04-15T10:45:54.221Z,50.834808
2023-04-15T10:46:54.330Z,50.834801
2023-04-15T10:47:54.257Z,50.834801
2023-04-15T10:48:54.197Z,50.834785
2023-04-15T10:49:54.182Z,50.834778
2023-04-15T10:50:54.190Z,50.834785
2023-04-15T10:51:54.167Z,50.834782
2023-04-15T10:52:54.270Z,50.834782
2023-04-15T10:53:54.164Z,50.834782
2023-04-15T10:54:54.160Z,50.834785
2023-04-15T10:55:54.149Z,50.834766
2023-04-15T10:56:54.150Z,50.834797
2023-04-15T10:57:54.130Z,50.834793
2023-04-15T10:58:54.113Z,50.834812
2023-04-15T10:59:54.118Z,50.834805
2023-04-15T11:00:54.123Z,50.834820
2023-04-15T11:01:54.312Z,50.834797
2023-04-15T11:02:54.354Z,50.834835
2023-04-15T11:03:54.234Z,50.834820
2023-04-15T11:04:54.195Z,50.834812
2023-04-15T11:05:54.106Z,50.834827
2023-04-15T11:06:54.096Z,50.834801
2023-04-15T11:07:54.057Z,50.834808
2023-04-15T11:08:54.050Z,50.834820
2023-04-15T11:09:54.029Z,50.834843
2023-04-15T11:10:54.076Z,50.834835
2023-04-15T11:11:54.003Z,50.834831
2023-04-15T11:12:54.044Z,50.834827
2023-04-15T11:13:54.012Z,50.834824
2023-04-15T11:14:54.065Z,50.834816
2023-04-15T11:15:53.987Z,50.834831
2023-04-15T11:16:53.984Z,50.834816
2023-04-15T11:17:54.120Z,50.834854
2023-04-15T11:18:53.955Z,50.834839
2023-04-15T11:19:53.947Z,50.834839
2023-04-15T11:20:53.962Z,50.834824
2023-04-15T11:21:53.931Z,50.834797
2023-04-15T11:23:08.204Z,50.834820
2023-04-15T11:23:54.889Z,50.834816
2023-04-15T11:24:54.953Z,50.834835
2023-04-15T11:25:53.904Z,50.834816
2023-04-15T11:26:53.893Z,50.834820
2023-04-15T11:27:53.904Z,50.834827
2023-04-15T11:28:53.923Z,50.834824
2023-04-15T11:29:53.888Z,50.834824
2023-04-15T11:30:53.979Z,50.834831
2023-04-15T11:31:53.887Z,50.834820
2023-04-15T11:32:53.898Z,50.834824
2023-04-15T11:33:53.865Z,50.834831
2023-04-15T11:34:53.876Z,50.834816
2023-04-15T11:35:53.854Z,50.834808
2023-04-15T11:36:53.844Z,50.834812
2023-04-15T11:37:53.819Z,50.834805
2023-04-15T11:38:53.824Z,50.834797
2023-04-15T11:39:53.832Z,50.834801
2023-04-15T11:40:53.796Z,50.834808
2023-04-15T11:41:53.826Z,50.834805
2023-04-15T11:42:54.782Z,50.834808
2023-04-15T11:43:53.803Z,50.834812
2023-04-15T11:44:54.417Z,50.834805
2023-04-15T11:45:53.881Z,50.834816
2023-04-15T11:46:53.762Z,50.834801